Etusivu
METAR-TAF:

METAR-TAF

Lentoasemat :

Anoka County-Blaine Airport (Janes Field)

Minneapolis / Blaine, Minnesota, Yhdysvallat

Leveyspiiri: 45-09N, Pituuspiiri: 093-13W, korkeus merenpinnasta: 278 m

Tämänhetkinen sää

Tämä raportti tehtiin 57 minuuttia sitten, kello 11.57 UTC
tyyntä
Lämpötila 13°C
Kosteus 88%
Ilmanpaine 1018 hPa
Näkyvyys: 16.1 km
Muutamia pilviä 8000 ft:n korkeudessa
Hajanaisia pilviä 25000 ft:n korkeudessa

METAR: KANE 051157Z 00000KT 10SM FEW080 SCT250 13/11 A3006

Aika: 07:54 (12:54 UTC)


TAF: puuttuu

Säähavainnot ja -ennusteet yli 4000 lentoasemalta (METAR- ja TAF-raportit).

Käytössä olevat sääasemat on merkitty karttaan keltaisilla ja punaisilla pisteillä.

Aseta hiiri pisteen päälle nähdäksesi sääaseman nimen.

Klikkaa sitten nähdäksesi säähavainnot ja -ennusteet.

Kartan vaihtaminen: klikkaa mustalla rastilla varustettuja vihreitä pisteitä, niin voit zoomata sisään; viivalla varustettua vihreää pistettä, niin voit zoomata ulos tai vihreitä nuolia, niin pääset viereisille kartoille.


METAR-TAF: